• Join FlightAware (Why Join?)
  • Login
  • US Flag 
12:41AM EDT


 

Airport Tracker/Info


-or-


 

Live Flight TrackerFlight Track Log ✈ EJA951 ✈ 16-Jul-2013 ✈ KMDW - KXNA

Flight Track Log - Related Links

Times and Time Zones

All times are in EDT time to prevent confusion due to time zone crossing. See the EJA951 flight status page for this flight to view local times or setup timezone preferences in your user account.

Time Position Orientation Groundspeed Altitude Reporting Facility
EDT Latitude Longitude Course Direction KTS MPH feet Rate Location/Type
10:12PM 41.6908 -87.8519 213° Southwest 216 249 5,700  Level Chicago Center
10:13PM 41.6214 -87.9292 220° Southwest 272 313 8,800 2,040 Climbing Chicago Center
10:14PM 41.5594 -88.0003 221° Southwest 293 337 9,900 1,320 Climbing Chicago Center
10:15PM 41.4939 -88.0583 214° Southwest 288 331 11,600 1,560 Climbing Chicago Center
10:16PM 41.2144 -88.2547 191° South  Level FlightAware Approximate
10:16PM 41.4122 -88.0625 182° South 291 335 13,200  Level Chicago Center
10:17PM 41.3178 -88.0683 183° South 308 354 15,100 1,800 Climbing Chicago Center
10:18PM 41.2272 -88.0867 189° South 323 372 16,900 1,560 Climbing Chicago Center
10:19PM 41.1336 -88.1117 191° South 339 390 18,300 1,560 Climbing Chicago Center
10:20PM 41.0378 -88.1444 194° South 353 406 20,100 1,740 Climbing Chicago Center
10:21PM 40.9386 -88.1750 193° South 364 419 21,900 1,800 Climbing Chicago Center
10:22PM 40.8367 -88.2078 194° South 376 433 23,800 1,980 Climbing Chicago Center
10:23PM 40.7119 -88.2492 194° South 385 443 26,000 1,860 Climbing Chicago Center
10:24PM 40.6039 -88.2822 193° South 399 459 27,700 1,560 Climbing Chicago Center
10:25PM 40.5028 -88.3414 204° Southwest 406 467 29,200 1,500 Climbing Chicago Center
10:26PM 40.4219 -88.4525 226° Southwest 418 481 30,800 1,500 Climbing Chicago Center
10:27PM 40.3392 -88.5653 226° Southwest 427 491 32,300 1,500 Climbing Chicago Center
10:28PM 40.2519 -88.6806 225° Southwest 438 504 33,900 1,560 Climbing Chicago Center
10:29PM 40.1639 -88.7975 225° Southwest 448 516 35,500 1,560 Climbing Chicago Center
10:30PM 40.0753 -88.9147 225° Southwest 451 519 37,100 1,620 Climbing Chicago Center
10:31PM 39.9856 -89.0331 225° Southwest 455 524 38,800 1,260 Climbing Chicago Center
10:32PM 39.8961 -89.1506 225° Southwest 454 522 39,700 540 Climbing Chicago Center
10:33PM 39.7825 -89.3003 225° Southwest 480 552 40,000 120 Climbing Chicago Center
10:34PM 39.6869 -89.4333 227° Southwest 495 570 40,000  Level Chicago Center
10:35PM 39.6033 -89.5567 229° Southwest 509 586 40,000  Level Kansas City Center
10:36PM 39.5086 -89.6961 229° Southwest 516 594 40,000  Level Kansas City Center
10:37PM 39.3958 -89.8642 229° Southwest 517 595 40,000  Level Kansas City Center
10:38PM 39.3006 -90.0019 228° Southwest 517 595 40,000  Level Kansas City Center
10:39PM 39.2053 -90.1400 228° Southwest 517 595 40,000  Level Kansas City Center
10:40PM 39.1117 -90.2775 229° Southwest 516 594 40,000  Level Kansas City Center
10:41PM 39.0164 -90.4150 228° Southwest 520 598 40,000  Level Kansas City Center
10:42PM 38.9189 -90.5567 229° Southwest 514 592 40,000  Level Kansas City Center
10:43PM 38.8281 -90.6850 228° Southwest 517 595 40,000  Level Kansas City Center
10:44PM 38.7131 -90.8456 227° Southwest 517 595 40,000  Level Kansas City Center
10:45PM 38.6175 -90.9781 227° Southwest 514 592 40,000  Level Kansas City Center
10:46PM 38.5247 -91.1108 228° Southwest 508 585 40,000  Level Kansas City Center
10:47PM 38.4283 -91.2453 228° Southwest 512 589 40,000  Level Kansas City Center
10:48PM 38.3206 -91.3933 227° Southwest 510 587 40,000  Level Kansas City Center
10:50PM 38.2253 -91.5236 227° Southwest 501 577 40,000  Level Kansas City Center
10:51PM 38.1300 -91.6558 228° Southwest 503 579 40,000  Level Kansas City Center
10:52PM 38.0336 -91.7889 227° Southwest 506 582 40,000  Level Kansas City Center
10:53PM 37.9372 -91.9200 227° Southwest 504 580 40,000 -300 Level Kansas City Center
10:54PM 37.8386 -92.0528 227° Southwest 508 585 39,400 -1,260 Descending Kansas City Center
10:55PM 37.7403 -92.1858 227° Southwest 505 581 37,400 -1,800 Descending Kansas City Center
10:56PM 37.6467 -92.3139 227° Southwest 497 572 35,800 -1,680 Descending Kansas City Center
10:57PM 37.5536 -92.4378 227° Southwest 486 559 34,000 -1,860 Descending Kansas City Center
10:58PM 37.4561 -92.5722 228° Southwest 513 590 32,100 -2,460 Descending Kansas City Center
10:59PM 37.3575 -92.7006 226° Southwest 502 578 29,100 -3,000 Descending Kansas City Center
11:00PM 37.2586 -92.8269 226° Southwest 501 577 26,100 -3,120 Descending Kansas City Center
11:01PM 37.1664 -92.9494 227° Southwest 488 562 22,800 -3,300 Descending Kansas City Center
11:02PM 37.0769 -93.0681 227° Southwest 474 545 19,500 -3,120 Descending Kansas City Center
11:03PM 36.9911 -93.1825 227° Southwest 458 527 16,500 -3,060 Descending Kansas City Center
11:04PM 36.9089 -93.2906 226° Southwest 442 509 13,200 -3,180 Descending Kansas City Center
11:05PM 36.8281 -93.3936 226° Southwest 427 491 10,100 -1,620 Descending Kansas City Center
11:06PM 36.7386 -93.5061 225° Southwest 396 456 10,000 -60 Descending Kansas City Center
11:07PM 36.6600 -93.6044 225° Southwest 398 458 10,000  Level Kansas City Center
11:08PM 36.6053 -93.7197 239° Southwest 393 452 10,000  Level Kansas City Center
11:09PM 36.5647 -93.8331 246° West 385 443 10,000  Level Kansas City Center
11:10PM 36.5233 -93.9436 245° Southwest 361 415 10,000 -720 Level Kansas City Center
11:11PM 36.4894 -94.0364 246° West 312 359 8,600 -1,920 Descending Kansas City Center
11:12PM 36.4592 -94.1222 246° West 282 325 6,100 -2,520 Descending Kansas City Center
11:13PM 36.4217 -94.2233 245° Southwest 273 314 3,500 -1,560 Descending Kansas City Center
11:14PM 36.3928 -94.2972 244° Southwest 253 291 3,000 -600 Descending Kansas City Center
11:15PM 36.3514 -94.3275 211° Southwest 205 236 2,400 -600 Descending Kansas City Center
11:16PM 36.3139 -94.3233 175° South 175 201 1,800 -480 Descending Kansas City Center
11:17PM 36.2833 -94.3061 156° South 162 186 1,500 -300 Descending Kansas City Center